createdAt,value
2019-05-07T00:01:54.811Z,8.58
2019-05-07T00:04:22.469Z,7.33
2019-05-07T00:06:52.709Z,10.88
2019-05-07T00:09:20.542Z,7.45
2019-05-07T00:11:48.581Z,11.85
2019-05-07T00:14:16.526Z,9.05
2019-05-07T00:16:44.498Z,8.50
2019-05-07T00:19:13.030Z,9.40
2019-05-07T00:21:42.458Z,8.48
2019-05-07T00:24:12.971Z,10.88
2019-05-07T00:26:42.918Z,8.78
2019-05-07T00:29:12.798Z,9.68
2019-05-07T00:31:41.956Z,10.88
2019-05-07T00:34:12.463Z,14.60
2019-05-07T00:36:48.887Z,13.18
2019-05-07T00:39:34.207Z,10.93
2019-05-07T00:42:25.076Z,14.53
2019-05-07T00:45:13.146Z,10.75
2019-05-07T00:47:28.749Z,8.78
2019-05-07T00:49:59.734Z,9.55
2019-05-07T00:52:27.642Z,12.50
2019-05-07T00:54:55.631Z,10.05
2019-05-07T00:57:43.053Z,8.65
2019-05-07T01:00:13.120Z,9.08
2019-05-07T01:02:43.105Z,9.08
2019-05-07T01:05:12.268Z,7.92
2019-05-07T01:07:41.968Z,13.78
2019-05-07T01:10:10.073Z,12.25
2019-05-07T01:12:37.976Z,12.00
2019-05-07T01:15:06.159Z,10.08
2019-05-07T01:17:34.073Z,9.80
2019-05-07T01:20:02.962Z,10.40
2019-05-07T01:22:33.074Z,11.75
2019-05-07T01:25:02.273Z,11.28
2019-05-07T01:27:32.174Z,12.73
2019-05-07T01:30:02.503Z,12.53
2019-05-07T01:32:47.647Z,12.03
2019-05-07T01:35:22.396Z,13.85
2019-05-07T01:37:52.308Z,13.60
2019-05-07T01:40:22.711Z,11.38
2019-05-07T01:42:52.839Z,15.68
2019-05-07T01:45:24.940Z,11.90
2019-05-07T01:47:53.215Z,10.13
2019-05-07T01:50:22.697Z,15.00
2019-05-07T01:52:52.245Z,11.78
2019-05-07T01:55:22.410Z,9.30
2019-05-07T01:57:52.232Z,10.80
2019-05-07T02:00:22.285Z,11.03
2019-05-07T02:02:55.486Z,11.43
2019-05-07T02:05:32.501Z,15.30
2019-05-07T02:08:03.050Z,11.80
2019-05-07T02:10:39.332Z,12.50
2019-05-07T02:13:07.305Z,10.93
2019-05-07T02:15:35.287Z,10.80
2019-05-07T02:18:03.367Z,11.00
2019-05-07T02:20:32.193Z,11.08
2019-05-07T02:23:02.581Z,9.95
2019-05-07T02:25:32.526Z,9.90
2019-05-07T02:28:02.110Z,10.90
2019-05-07T02:30:29.926Z,15.08
2019-05-07T02:32:57.812Z,10.20
2019-05-07T02:35:25.789Z,15.88
2019-05-07T02:38:03.154Z,11.18
2019-05-07T02:40:53.256Z,12.03
2019-05-07T02:43:22.618Z,11.25
2019-05-07T02:46:22.347Z,14.70
2019-05-07T02:48:54.488Z,10.18
2019-05-07T02:51:28.481Z,11.50
2019-05-07T02:54:24.289Z,10.68
2019-05-07T02:56:53.290Z,12.05
2019-05-07T02:59:23.342Z,11.18
2019-05-07T03:01:53.605Z,14.18
2019-05-07T03:04:20.886Z,13.10
2019-05-07T03:06:48.743Z,15.40
2019-05-07T03:09:16.626Z,11.25
2019-05-07T03:11:44.517Z,13.83
2019-05-07T03:14:13.936Z,14.80
2019-05-07T03:16:47.648Z,13.28
2019-05-07T03:19:13.423Z,12.47
2019-05-07T03:21:54.277Z,14.60
2019-05-07T03:24:36.181Z,11.80
2019-05-07T03:27:04.118Z,12.55
2019-05-07T03:29:33.280Z,13.72
2019-05-07T03:32:39.411Z,15.45
2019-05-07T03:35:47.138Z,13.32
2019-05-07T03:38:15.405Z,15.25
2019-05-07T03:40:44.801Z,12.43
2019-05-07T03:43:13.857Z,14.65
2019-05-07T03:46:07.796Z,14.07
2019-05-07T03:48:36.991Z,15.85
2019-05-07T03:51:04.883Z,15.48
2019-05-07T03:53:34.264Z,13.18
2019-05-07T03:56:04.019Z,15.38
2019-05-07T03:58:34.029Z,15.55
2019-05-07T04:01:13.138Z,13.95
2019-05-07T04:03:39.539Z,15.08
2019-05-07T04:06:07.398Z,14.18
2019-05-07T04:08:35.327Z,12.98
2019-05-07T04:11:04.021Z,12.75
2019-05-07T04:13:33.474Z,14.75
2019-05-07T04:16:04.002Z,12.13
2019-05-07T04:18:32.961Z,12.93
2019-05-07T04:21:03.602Z,16.05
2019-05-07T04:23:34.218Z,14.03
2019-05-07T04:26:26.801Z,13.58
2019-05-07T04:28:59.599Z,15.23
2019-05-07T04:31:33.904Z,15.55
2019-05-07T04:34:03.837Z,16.05
2019-05-07T04:36:35.143Z,16.37
2019-05-07T04:39:06.716Z,14.05
2019-05-07T04:41:34.739Z,14.28
2019-05-07T04:44:03.499Z,14.68
2019-05-07T04:46:33.337Z,19.87
2019-05-07T04:49:03.623Z,15.03
2019-05-07T04:52:03.712Z,16.17
2019-05-07T04:54:33.023Z,18.40
2019-05-07T04:57:03.627Z,18.65
2019-05-07T04:59:33.012Z,23.38
2019-05-07T05:02:09.013Z,13.43
2019-05-07T05:04:36.953Z,16.80
2019-05-07T05:07:04.952Z,16.40
2019-05-07T05:09:33.232Z,18.60
2019-05-07T05:12:02.737Z,15.13
2019-05-07T05:14:33.733Z,17.30
2019-05-07T05:17:02.118Z,19.67
2019-05-07T05:19:32.183Z,16.57
2019-05-07T05:22:07.441Z,20.25
2019-05-07T05:24:39.385Z,16.15
2019-05-07T05:27:07.354Z,16.55
2019-05-07T05:29:36.618Z,20.30
2019-05-07T05:32:04.909Z,15.08
2019-05-07T05:34:34.381Z,15.38
2019-05-07T05:37:02.559Z,16.32
2019-05-07T05:39:32.026Z,16.85
2019-05-07T05:42:08.423Z,21.95
2019-05-07T05:44:36.330Z,14.95
2019-05-07T05:47:05.237Z,18.12
2019-05-07T05:49:34.255Z,18.45
2019-05-07T05:52:16.909Z,21.70
2019-05-07T05:55:04.438Z,17.48
2019-05-07T05:57:43.335Z,17.98
2019-05-07T06:00:27.003Z,18.92
2019-05-07T06:03:13.080Z,18.82
2019-05-07T06:06:01.950Z,15.50
2019-05-07T06:08:36.238Z,20.43
2019-05-07T06:11:23.795Z,17.02
2019-05-07T06:14:02.249Z,17.17
2019-05-07T06:16:36.692Z,16.87
2019-05-07T06:19:33.478Z,15.88
2019-05-07T06:22:19.522Z,18.82
2019-05-07T06:25:08.268Z,17.95
2019-05-07T06:27:36.337Z,17.17
2019-05-07T06:30:05.195Z,18.85
2019-05-07T06:32:33.522Z,17.55
2019-05-07T06:35:03.126Z,17.20
2019-05-07T06:37:32.186Z,21.60
2019-05-07T06:40:12.148Z,22.95
2019-05-07T06:43:08.799Z,33.40
2019-05-07T06:45:42.683Z,20.20
2019-05-07T06:48:12.699Z,16.87
2019-05-07T06:50:55.597Z,22.95
2019-05-07T06:53:28.145Z,25.70
2019-05-07T06:55:57.679Z,42.08
2019-05-07T06:58:32.662Z,76.62
2019-05-07T07:01:22.652Z,31.45
2019-05-07T07:04:16.393Z,19.80
2019-05-07T07:07:01.942Z,24.63
2019-05-07T07:09:42.428Z,21.93
2019-05-07T07:12:14.437Z,22.53
2019-05-07T07:14:42.521Z,22.63
2019-05-07T07:17:12.761Z,24.97
2019-05-07T07:19:42.649Z,22.30
2019-05-07T07:22:10.102Z,23.43
2019-05-07T07:24:37.972Z,19.63
2019-05-07T07:27:08.593Z,24.00
2019-05-07T07:29:39.049Z,23.17
2019-05-07T07:32:07.352Z,31.60
2019-05-07T07:34:42.637Z,28.30
2019-05-07T07:37:36.028Z,23.10
2019-05-07T07:40:29.999Z,21.47
2019-05-07T07:42:58.262Z,21.20
2019-05-07T07:45:26.124Z,20.73
2019-05-07T07:47:54.004Z,24.33
2019-05-07T07:50:22.521Z,23.23
2019-05-07T07:52:52.799Z,18.40
2019-05-07T07:55:24.882Z,19.80
2019-05-07T07:58:09.239Z,20.53
2019-05-07T08:00:46.578Z,17.20
2019-05-07T08:03:14.487Z,18.93
2019-05-07T08:05:42.867Z,22.50
2019-05-07T08:08:12.866Z,19.47
2019-05-07T08:10:42.553Z,21.53
2019-05-07T08:13:12.247Z,17.87
2019-05-07T08:15:42.843Z,15.83
2019-05-07T08:18:11.965Z,19.23
2019-05-07T08:20:40.213Z,15.83
2019-05-07T08:23:08.146Z,14.60
2019-05-07T08:25:47.936Z,16.60
2019-05-07T08:28:17.650Z,18.20
2019-05-07T08:30:52.625Z,14.97
2019-05-07T08:33:25.356Z,18.43
2019-05-07T08:36:14.725Z,19.57
2019-05-07T08:38:53.311Z,13.83
2019-05-07T08:41:24.156Z,17.07
2019-05-07T08:44:08.210Z,14.87
2019-05-07T08:46:44.681Z,17.20
2019-05-07T08:49:13.186Z,24.13
2019-05-07T08:51:42.599Z,14.70
2019-05-07T08:54:12.376Z,16.90
2019-05-07T08:56:42.399Z,14.47
2019-05-07T08:59:12.243Z,13.47
2019-05-07T09:01:43.368Z,14.93
2019-05-07T09:04:13.973Z,15.43
2019-05-07T09:06:43.035Z,12.20
2019-05-07T09:09:13.128Z,15.30
2019-05-07T09:11:42.603Z,21.60
2019-05-07T09:14:12.567Z,12.70
2019-05-07T09:16:42.647Z,15.00
2019-05-07T09:19:12.875Z,15.27
2019-05-07T09:21:42.924Z,13.47
2019-05-07T09:24:12.227Z,14.23
2019-05-07T09:27:00.114Z,18.40
2019-05-07T09:29:43.460Z,13.67
2019-05-07T09:32:32.815Z,15.90
2019-05-07T09:35:02.294Z,14.70
2019-05-07T09:37:32.640Z,13.63
2019-05-07T09:40:02.833Z,14.90
2019-05-07T09:42:32.966Z,13.10
2019-05-07T09:45:02.008Z,17.03
2019-05-07T09:47:32.293Z,13.13
2019-05-07T09:50:05.564Z,13.83
2019-05-07T09:52:32.103Z,11.73
2019-05-07T09:55:03.778Z,8.80
2019-05-07T09:57:34.671Z,9.53
2019-05-07T10:00:02.235Z,10.03
2019-05-07T10:02:32.004Z,10.20
2019-05-07T10:05:02.394Z,10.60
2019-05-07T10:07:32.513Z,9.33
2019-05-07T10:10:03.276Z,9.40
2019-05-07T10:12:36.913Z,8.37
2019-05-07T10:15:05.122Z,11.53
2019-05-07T10:17:47.652Z,9.60
2019-05-07T10:20:22.388Z,9.70
2019-05-07T10:22:47.146Z,9.50
2019-05-07T10:25:15.086Z,10.87
2019-05-07T10:27:43.185Z,9.87
2019-05-07T10:30:12.830Z,9.93
2019-05-07T10:32:42.152Z,10.33
2019-05-07T10:35:12.720Z,8.60
2019-05-07T10:37:42.254Z,8.30
2019-05-07T10:40:13.324Z,9.77
2019-05-07T10:42:43.068Z,10.37
2019-05-07T10:45:37.245Z,11.23
2019-05-07T10:48:25.026Z,8.73
2019-05-07T10:50:54.084Z,9.03
2019-05-07T10:53:23.072Z,10.40
2019-05-07T10:55:52.277Z,10.00
2019-05-07T10:58:21.935Z,8.33
2019-05-07T11:00:49.930Z,8.73
2019-05-07T11:03:17.900Z,11.20
2019-05-07T11:05:46.278Z,8.20
2019-05-07T11:08:14.170Z,7.60
2019-05-07T11:10:42.165Z,8.60
2019-05-07T11:13:10.042Z,8.50
2019-05-07T11:15:38.813Z,7.97
2019-05-07T11:18:17.510Z,8.60
2019-05-07T11:20:50.287Z,9.67
2019-05-07T11:23:15.433Z,7.17
2019-05-07T11:25:43.311Z,5.40
2019-05-07T11:28:12.318Z,5.63
2019-05-07T11:30:42.540Z,5.80
2019-05-07T11:33:12.694Z,6.10
2019-05-07T11:35:42.251Z,8.87
2019-05-07T11:38:18.606Z,6.00
2019-05-07T11:40:42.472Z,10.47
2019-05-07T11:43:22.102Z,6.00
2019-05-07T11:45:59.178Z,7.63
2019-05-07T11:48:28.089Z,7.37
2019-05-07T11:51:18.621Z,9.00
2019-05-07T11:54:04.933Z,10.60
2019-05-07T11:56:33.009Z,12.10
2019-05-07T11:59:02.649Z,12.87
2019-05-07T12:01:43.880Z,10.80
2019-05-07T12:04:01.997Z,7.43
2019-05-07T12:06:32.046Z,7.10
2019-05-07T12:08:59.976Z,8.60
2019-05-07T12:11:27.958Z,7.73
2019-05-07T12:13:57.380Z,9.13
2019-05-07T12:16:25.529Z,10.03
2019-05-07T12:18:56.205Z,8.27
2019-05-07T12:21:24.392Z,9.33
2019-05-07T12:23:52.588Z,8.90
2019-05-07T12:26:22.250Z,6.80
2019-05-07T12:28:52.218Z,8.50
2019-05-07T12:31:55.437Z,8.20
2019-05-07T12:34:35.152Z,7.93
2019-05-07T12:37:03.265Z,9.13
2019-05-07T12:39:31.824Z,6.43
2019-05-07T12:41:59.961Z,9.67
2019-05-07T12:44:27.852Z,6.00
2019-05-07T12:46:55.819Z,9.50
2019-05-07T12:49:23.798Z,5.80
2019-05-07T12:52:23.694Z,7.23
2019-05-07T12:55:11.925Z,6.63
2019-05-07T12:57:42.089Z,7.10
2019-05-07T13:03:32.246Z,5.13
2019-05-07T13:05:59.952Z,7.03
2019-05-07T13:08:27.982Z,5.47
2019-05-07T13:10:55.904Z,5.00
2019-05-07T13:13:23.949Z,10.33
2019-05-07T13:15:51.978Z,8.20
2019-05-07T13:18:19.995Z,5.33
2019-05-07T13:20:48.909Z,6.83
2019-05-07T13:23:17.735Z,9.30
2019-05-07T13:25:45.655Z,8.10
2019-05-07T13:28:16.657Z,8.17
2019-05-07T13:30:44.627Z,5.77
2019-05-07T13:33:14.764Z,9.13
2019-05-07T13:35:44.365Z,7.03
2019-05-07T13:38:32.350Z,8.77
2019-05-07T13:41:38.510Z,6.80
2019-05-07T13:44:31.768Z,7.10
2019-05-07T13:47:18.630Z,5.37
2019-05-07T13:49:49.329Z,5.67
2019-05-07T13:52:17.562Z,8.13
2019-05-07T13:54:45.495Z,6.93
2019-05-07T13:57:13.444Z,5.50
2019-05-07T13:59:42.443Z,5.03
2019-05-07T14:02:13.803Z,8.63
2019-05-07T14:04:43.047Z,8.90
2019-05-07T14:07:12.677Z,7.00
2019-05-07T14:09:42.056Z,7.17
2019-05-07T14:12:12.160Z,6.60
2019-05-07T14:14:42.438Z,5.70
2019-05-07T14:17:10.081Z,6.57
2019-05-07T14:19:38.538Z,6.23
2019-05-07T14:22:15.179Z,6.43
2019-05-07T14:24:36.554Z,6.90
2019-05-07T14:27:04.569Z,5.50
2019-05-07T14:29:32.528Z,6.27
2019-05-07T14:32:22.872Z,6.13
2019-05-07T14:35:22.794Z,5.10
2019-05-07T14:37:58.162Z,5.03
2019-05-07T14:40:26.144Z,5.80
2019-05-07T14:43:06.298Z,4.90
2019-05-07T14:45:34.472Z,6.40
2019-05-07T14:48:02.984Z,5.77
2019-05-07T14:50:32.844Z,5.57
2019-05-07T14:53:02.755Z,5.93
2019-05-07T14:55:32.417Z,5.53
2019-05-07T14:58:01.846Z,8.87
2019-05-07T15:00:29.889Z,7.90
2019-05-07T15:02:57.830Z,4.83
2019-05-07T15:05:25.926Z,5.43
2019-05-07T15:08:06.615Z,5.13
2019-05-07T15:10:23.851Z,4.80
2019-05-07T15:12:52.290Z,6.40
2019-05-07T15:15:22.009Z,6.53
2019-05-07T15:17:58.369Z,4.73
2019-05-07T15:20:26.946Z,5.90
2019-05-07T15:23:03.765Z,5.47
2019-05-07T15:25:32.177Z,5.07
2019-05-07T15:28:01.892Z,4.43
2019-05-07T15:30:41.778Z,5.07
2019-05-07T15:33:10.045Z,9.13
2019-05-07T15:35:39.199Z,6.67
2019-05-07T15:38:07.264Z,6.90
2019-05-07T15:40:35.481Z,7.17
2019-05-07T15:43:03.449Z,5.13
2019-05-07T15:45:31.512Z,7.23
2019-05-07T15:47:59.439Z,5.00
2019-05-07T15:50:32.240Z,6.57
2019-05-07T15:53:23.168Z,6.43
2019-05-07T15:55:52.272Z,5.57
2019-05-07T15:58:22.690Z,5.60
2019-05-07T16:00:51.742Z,6.63
2019-05-07T16:03:25.285Z,7.53
2019-05-07T16:05:53.377Z,6.43
2019-05-07T16:08:23.648Z,6.10
2019-05-07T16:10:53.106Z,4.40
2019-05-07T16:13:26.339Z,6.80
2019-05-07T16:15:54.428Z,5.00
2019-05-07T16:18:27.725Z,6.20
2019-05-07T16:20:55.925Z,7.97
2019-05-07T16:23:23.944Z,5.23
2019-05-07T16:25:52.786Z,4.30
2019-05-07T16:28:21.910Z,4.00
2019-05-07T16:30:52.112Z,8.20
2019-05-07T16:33:20.575Z,4.43
2019-05-07T16:35:48.631Z,4.80
2019-05-07T16:38:18.149Z,6.03
2019-05-07T16:40:46.280Z,4.30
2019-05-07T16:43:15.403Z,5.90
2019-05-07T16:45:46.777Z,4.00
2019-05-07T16:48:14.875Z,5.47
2019-05-07T16:50:42.910Z,6.23
2019-05-07T16:53:16.215Z,3.93
2019-05-07T16:55:42.995Z,5.03
2019-05-07T16:58:27.163Z,3.80
2019-05-07T17:01:00.143Z,4.27
2019-05-07T17:03:34.678Z,4.20
2019-05-07T17:06:02.738Z,4.83
2019-05-07T17:08:36.420Z,5.77
2019-05-07T17:11:05.503Z,5.00
2019-05-07T17:13:33.870Z,3.60
2019-05-07T17:16:03.386Z,4.43
2019-05-07T17:18:32.661Z,4.20
2019-05-07T17:21:02.062Z,5.07
2019-05-07T17:23:43.637Z,5.73
2019-05-07T17:26:00.799Z,3.40
2019-05-07T17:28:28.748Z,5.17
2019-05-07T17:30:57.191Z,5.10
2019-05-07T17:33:25.231Z,3.90
2019-05-07T17:35:53.548Z,3.80
2019-05-07T17:38:23.044Z,4.27
2019-05-07T17:40:52.176Z,5.93
2019-05-07T17:43:21.947Z,5.17
2019-05-07T17:45:52.242Z,5.87
2019-05-07T17:48:23.040Z,4.97
2019-05-07T17:51:00.748Z,5.60
2019-05-07T17:53:29.270Z,6.73
2019-05-07T17:55:57.435Z,6.37
2019-05-07T17:58:25.396Z,9.97
2019-05-07T18:00:57.244Z,6.20
2019-05-07T18:03:32.687Z,7.03
2019-05-07T18:06:03.192Z,8.93
2019-05-07T18:08:32.486Z,5.90
2019-05-07T18:11:02.335Z,5.10
2019-05-07T18:13:32.397Z,5.80
2019-05-07T18:16:23.178Z,6.80
2019-05-07T18:18:52.035Z,8.70
2019-05-07T18:21:22.030Z,6.27
2019-05-07T18:23:51.748Z,8.83
2019-05-07T18:26:28.067Z,8.33
2019-05-07T18:28:52.107Z,9.10
2019-05-07T18:31:25.227Z,7.30
2019-05-07T18:33:57.048Z,7.10
2019-05-07T18:36:25.194Z,7.20
2019-05-07T18:38:53.613Z,6.70
2019-05-07T18:41:22.340Z,11.47
2019-05-07T18:43:54.432Z,7.10
2019-05-07T18:46:22.168Z,7.03
2019-05-07T18:48:51.834Z,13.70
2019-05-07T18:51:19.967Z,9.83
2019-05-07T18:53:48.118Z,8.70
2019-05-07T18:56:16.283Z,9.40
2019-05-07T18:58:45.385Z,7.80
2019-05-07T19:01:15.254Z,6.60
2019-05-07T19:03:43.854Z,8.98
2019-05-07T19:06:13.378Z,11.23
2019-05-07T19:08:42.347Z,9.58
2019-05-07T19:11:12.269Z,10.03
2019-05-07T19:13:42.222Z,8.45
2019-05-07T19:16:12.444Z,6.05
2019-05-07T19:18:42.862Z,6.28
2019-05-07T19:21:10.507Z,9.13
2019-05-07T19:23:38.752Z,10.60
2019-05-07T19:26:07.781Z,10.18
2019-05-07T19:28:36.417Z,13.08
2019-05-07T19:31:04.757Z,6.65
2019-05-07T19:33:32.962Z,9.35
2019-05-07T19:36:03.865Z,8.13
2019-05-07T19:38:32.430Z,8.65
2019-05-07T19:41:02.268Z,10.23
2019-05-07T19:43:32.391Z,10.98
2019-05-07T19:46:02.754Z,15.53
2019-05-07T19:48:32.289Z,16.90
2019-05-07T19:51:02.747Z,17.20
2019-05-07T19:53:32.667Z,16.82
2019-05-07T19:56:07.650Z,17.37
2019-05-07T19:58:35.903Z,17.07
2019-05-07T20:01:05.885Z,17.00
2019-05-07T20:03:34.046Z,21.35
2019-05-07T20:06:02.555Z,17.87
2019-05-07T20:08:32.295Z,14.78
2019-05-07T20:11:12.074Z,13.28
2019-05-07T20:13:43.583Z,12.93
2019-05-07T20:16:15.575Z,17.32
2019-05-07T20:18:43.876Z,13.98
2019-05-07T20:21:12.640Z,10.82
2019-05-07T20:23:42.595Z,15.72
2019-05-07T20:26:12.611Z,14.15
2019-05-07T20:28:41.737Z,14.18
2019-05-07T20:31:12.202Z,14.40
2019-05-07T20:33:42.187Z,15.93
2019-05-07T20:36:10.546Z,12.05
2019-05-07T20:38:39.099Z,14.25
2019-05-07T20:41:07.289Z,15.78
2019-05-07T20:43:35.918Z,10.50
2019-05-07T20:46:04.030Z,12.85
2019-05-07T20:48:32.627Z,11.88
2019-05-07T20:51:00.883Z,15.13
2019-05-07T20:53:47.008Z,11.50
2019-05-07T20:56:17.058Z,16.75
2019-05-07T20:58:45.209Z,17.95
2019-05-07T21:01:13.388Z,11.73
2019-05-07T21:03:42.906Z,14.90
2019-05-07T21:06:12.027Z,13.83
2019-05-07T21:08:40.138Z,10.82
2019-05-07T21:11:08.128Z,13.50
2019-05-07T21:13:36.189Z,12.33
2019-05-07T21:16:04.566Z,11.00
2019-05-07T21:18:34.360Z,11.00
2019-05-07T21:21:02.429Z,9.93
2019-05-07T21:23:32.421Z,10.85
2019-05-07T21:26:02.201Z,10.53
2019-05-07T21:28:32.339Z,10.43
2019-05-07T21:31:02.595Z,13.60
2019-05-07T21:33:32.256Z,9.38
2019-05-07T21:36:00.200Z,13.43
2019-05-07T21:38:28.252Z,10.32
2019-05-07T21:40:56.237Z,10.35
2019-05-07T21:43:24.225Z,9.40
2019-05-07T21:45:52.981Z,12.30
2019-05-07T21:48:22.291Z,9.23
2019-05-07T21:50:51.995Z,10.75
2019-05-07T21:53:29.032Z,11.40
2019-05-07T21:56:16.609Z,11.70
2019-05-07T21:58:48.226Z,11.40
2019-05-07T22:01:35.894Z,11.12
2019-05-07T22:04:04.081Z,10.38
2019-05-07T22:06:32.161Z,11.18
2019-05-07T22:09:01.968Z,8.43
2019-05-07T22:11:32.437Z,8.85
2019-05-07T22:14:02.083Z,9.25
2019-05-07T22:16:32.219Z,11.10
2019-05-07T22:19:02.535Z,11.68
2019-05-07T22:21:33.914Z,10.32
2019-05-07T22:24:02.649Z,11.70
2019-05-07T22:26:32.171Z,10.40
2019-05-07T22:29:00.179Z,8.88
2019-05-07T22:32:03.257Z,7.62
2019-05-07T22:34:47.346Z,9.38
2019-05-07T22:37:17.231Z,9.75
2019-05-07T22:39:47.085Z,10.95
2019-05-07T22:42:17.024Z,7.42
2019-05-07T22:44:45.023Z,12.82
2019-05-07T22:47:19.332Z,8.60
2019-05-07T22:49:49.792Z,9.85
2019-05-07T22:52:18.836Z,9.28
2019-05-07T22:54:47.626Z,14.55
2019-05-07T22:57:41.874Z,10.38
2019-05-07T23:00:13.681Z,8.98
2019-05-07T23:02:43.534Z,8.90
2019-05-07T23:05:32.408Z,11.90
2019-05-07T23:08:02.395Z,11.10
2019-05-07T23:10:30.410Z,10.38
2019-05-07T23:12:58.380Z,10.15
2019-05-07T23:15:26.294Z,12.35
2019-05-07T23:17:54.315Z,8.93
2019-05-07T23:20:24.353Z,8.95
2019-05-07T23:22:52.320Z,9.13
2019-05-07T23:25:24.265Z,12.47
2019-05-07T23:27:52.311Z,9.95
2019-05-07T23:30:22.240Z,9.55
2019-05-07T23:32:49.916Z,9.75
2019-05-07T23:35:17.848Z,10.38
2019-05-07T23:37:45.864Z,8.85
2019-05-07T23:40:30.523Z,9.70
2019-05-07T23:43:02.856Z,13.62
2019-05-07T23:45:30.966Z,12.00
2019-05-07T23:47:58.859Z,8.48
2019-05-07T23:50:26.812Z,13.90
2019-05-07T23:52:55.906Z,9.93
2019-05-07T23:55:23.868Z,11.15
2019-05-07T23:57:52.578Z,8.80
